Time;durP1;ratioP1;P1;durP2;ratioP2;P2;SDS_P1;SDS_P2;PMS_P1;PMS_P2;Temp;Humidity;BMP_temperature;BMP_pressure;BME280_temperature;BME280_humidity;BME280_pressure;Samples;Min_cycle;Max_cycle;Signal;HPM_P1;HPM_P2
2021/04/26 00:00:05;;;;;;;0.20;0.20;;;;;;;;;;5145069;27;20351;-69
2021/04/26 00:02:30;;;;;;;0.20;0.20;;;;;;;;;;5138646;27;20204;-69
2021/04/26 00:04:56;;;;;;;0.30;0.30;;;;;;;;;;5138427;27;20210;-70
2021/04/26 00:07:22;;;;;;;0.20;0.20;;;;;;;;;;5130940;27;20199;-69
2021/04/26 00:09:48;;;;;;;0.20;0.20;;;;;;;;;;5145176;27;20397;-69
2021/04/26 00:12:15;;;;;;;0.20;0.20;;;;;;;;;;5144928;27;20226;-69
2021/04/26 00:14:40;;;;;;;0.20;0.20;;;;;;;;;;5148875;27;20206;-69
2021/04/26 00:17:06;;;;;;;0.20;0.20;;;;;;;;;;5147378;27;20216;-69
2021/04/26 00:19:32;;;;;;;0.20;0.20;;;;;;;;;;5140417;27;20226;-69
2021/04/26 00:21:58;;;;;;;0.20;0.20;;;;;;;;;;5144484;27;20201;-69
2021/04/26 00:24:24;;;;;;;0.20;0.20;;;;;;;;;;5152862;27;20242;-70
2021/04/26 00:26:49;;;;;;;0.20;0.20;;;;;;;;;;5137063;27;20384;-69
2021/04/26 00:29:16;;;;;;;0.20;0.20;;;;;;;;;;5140039;27;20202;-69
2021/04/26 00:31:42;;;;;;;0.20;0.20;;;;;;;;;;5139954;27;20210;-69
2021/04/26 00:34:07;;;;;;;0.20;0.20;;;;;;;;;;5148093;27;20233;-69
2021/04/26 00:36:33;;;;;;;0.20;0.20;;;;;;;;;;5144297;27;20204;-69
2021/04/26 00:38:59;;;;;;;0.20;0.20;;;;;;;;;;5137857;28;20209;-69
2021/04/26 00:41:25;;;;;;;0.20;0.20;;;;;;;;;;5131532;27;20223;-69
2021/04/26 00:43:50;;;;;;;0.20;0.20;;;;;;;;;;5136944;28;20215;-70
2021/04/26 00:46:17;;;;;;;0.10;0.10;;;;;;;;;;5133132;28;20200;-69
2021/04/26 00:48:43;;;;;;;0.20;0.20;;;;;;;;;;5149364;27;20207;-70
2021/04/26 00:51:09;;;;;;;0.20;0.20;;;;;;;;;;5151224;27;20385;-69
2021/04/26 00:53:35;;;;;;;0.20;0.20;;;;;;;;;;5151586;27;20229;-70
2021/04/26 00:56:01;;;;;;;0.20;0.20;;;;;;;;;;5146491;27;20201;-70
2021/04/26 00:58:27;;;;;;;0.20;0.20;;;;;;;;;;5141522;27;20378;-70
2021/04/26 01:00:53;;;;;;;0.20;0.20;;;;;;;;;;5151194;27;20197;-70
2021/04/26 01:03:19;;;;;;;0.20;0.20;;;;;;;;;;5151465;27;20505;-69
2021/04/26 01:05:45;;;;;;;0.20;0.20;;;;;;;;;;5151262;27;20481;-69
2021/04/26 01:08:11;;;;;;;0.20;0.20;;;;;;;;;;5143809;27;20203;-70
2021/04/26 01:10:37;;;;;;;0.20;0.20;;;;;;;;;;5134265;27;20202;-70
2021/04/26 01:13:09;;;;;;;0.20;0.20;;;;;;;;;;5142669;27;20218;-69
2021/04/26 01:15:39;;;;;;;0.20;0.20;;;;;;;;;;5142381;27;20205;-69
2021/04/26 01:18:17;;;;;;;0.20;0.20;;;;;;;;;;5155266;27;20202;-72
2021/04/26 01:21:00;;;;;;;0.20;0.20;;;;;;;;;;5134299;27;20517;-70
2021/04/26 01:23:49;;;;;;;0.20;0.20;;;;;;;;;;5143340;27;20296;-69
2021/04/26 01:26:18;;;;;;;0.20;0.20;;;;;;;;;;5152450;27;20231;-70
2021/04/26 01:28:47;;;;;;;0.20;0.20;;;;;;;;;;5153241;27;20206;-70
2021/04/26 01:31:15;;;;;;;0.20;0.20;;;;;;;;;;5150950;27;20205;-69
2021/04/26 01:33:43;;;;;;;0.20;0.20;;;;;;;;;;5140353;27;20222;-69
2021/04/26 01:36:10;;;;;;;0.23;0.23;;;;;;;;;;5150805;27;20250;-70
2021/04/26 01:38:37;;;;;;;0.20;0.20;;;;;;;;;;5139328;27;20199;-70
2021/04/26 01:41:03;;;;;;;0.20;0.20;;;;;;;;;;5134293;27;20470;-69
2021/04/26 01:43:30;;;;;;;0.20;0.20;;;;;;;;;;5148186;27;20202;-70
2021/04/26 01:45:57;;;;;;;0.20;0.20;;;;;;;;;;5150813;27;20198;-70
2021/04/26 01:48:25;;;;;;;0.20;0.20;;;;;;;;;;5150788;27;20224;-69
2021/04/26 01:50:52;;;;;;;0.20;0.20;;;;;;;;;;5150433;27;20198;-70
2021/04/26 01:53:19;;;;;;;0.20;0.20;;;;;;;;;;5140608;27;20229;-70
2021/04/26 01:55:45;;;;;;;0.20;0.20;;;;;;;;;;5144805;27;20465;-70
2021/04/26 01:58:11;;;;;;;0.20;0.20;;;;;;;;;;5137579;27;20217;-70
2021/04/26 02:00:37;;;;;;;0.20;0.20;;;;;;;;;;5146958;27;20217;-71
2021/04/26 02:03:03;;;;;;;0.20;0.20;;;;;;;;;;5147846;27;20243;-70
2021/04/26 02:05:30;;;;;;;0.20;0.20;;;;;;;;;;5132041;27;20206;-70
2021/04/26 02:07:57;;;;;;;0.20;0.20;;;;;;;;;;5143725;27;20209;-70
2021/04/26 02:10:24;;;;;;;0.20;0.20;;;;;;;;;;5137094;27;20205;-70
2021/04/26 02:12:50;;;;;;;0.20;0.20;;;;;;;;;;5137866;27;20223;-70
2021/04/26 02:15:17;;;;;;;0.20;0.20;;;;;;;;;;5126526;28;20226;-70
2021/04/26 02:17:43;;;;;;;0.20;0.20;;;;;;;;;;5127228;28;20198;-69
2021/04/26 02:20:10;;;;;;;0.20;0.20;;;;;;;;;;5126651;28;20202;-71
2021/04/26 02:22:36;;;;;;;0.20;0.20;;;;;;;;;;5126792;27;20363;-69
2021/04/26 02:25:04;;;;;;;0.20;0.20;;;;;;;;;;5126729;27;20262;-69
2021/04/26 02:27:29;;;;;;;0.20;0.20;;;;;;;;;;5126306;28;20255;-70
2021/04/26 02:29:55;;;;;;;0.20;0.20;;;;;;;;;;5126396;27;20207;-69
2021/04/26 02:32:23;;;;;;;0.20;0.20;;;;;;;;;;5155445;27;20542;-70
2021/04/26 02:34:50;;;;;;;0.20;0.20;;;;;;;;;;5135254;27;20250;-69
2021/04/26 02:37:21;;;;;;;0.20;0.20;;;;;;;;;;5146789;27;20218;-70
2021/04/26 02:39:47;;;;;;;0.20;0.20;;;;;;;;;;5126129;28;20194;-70
2021/04/26 02:42:14;;;;;;;0.20;0.20;;;;;;;;;;5138299;27;20201;-69
2021/04/26 02:44:42;;;;;;;0.20;0.20;;;;;;;;;;5146740;27;20205;-70
2021/04/26 02:47:09;;;;;;;0.20;0.20;;;;;;;;;;5146591;27;20333;-70
2021/04/26 02:49:35;;;;;;;0.20;0.20;;;;;;;;;;5143772;27;20378;-69
2021/04/26 02:52:01;;;;;;;0.20;0.20;;;;;;;;;;5126082;28;20229;-69
2021/04/26 02:54:28;;;;;;;0.20;0.20;;;;;;;;;;5141483;27;20221;-69
2021/04/26 02:56:55;;;;;;;0.20;0.20;;;;;;;;;;5138713;27;20273;-69
2021/04/26 02:59:22;;;;;;;0.20;0.20;;;;;;;;;;5139750;27;20247;-70
2021/04/26 03:01:48;;;;;;;0.20;0.20;;;;;;;;;;5140685;27;20463;-70
2021/04/26 03:04:15;;;;;;;0.20;0.20;;;;;;;;;;5137518;27;20204;-69
2021/04/26 03:06:41;;;;;;;0.20;0.20;;;;;;;;;;5146184;27;20320;-69
2021/04/26 03:09:08;;;;;;;0.20;0.20;;;;;;;;;;5138470;27;20270;-70
2021/04/26 03:11:34;;;;;;;0.20;0.20;;;;;;;;;;5137973;27;20209;-68
2021/04/26 03:14:00;;;;;;;0.20;0.20;;;;;;;;;;5125607;28;20563;-68
2021/04/26 03:16:27;;;;;;;0.20;0.20;;;;;;;;;;5138476;27;20206;-68
2021/04/26 03:18:53;;;;;;;0.20;0.20;;;;;;;;;;5145928;27;20477;-68
2021/04/26 03:21:19;;;;;;;0.20;0.20;;;;;;;;;;5145655;27;20193;-69
2021/04/26 03:23:45;;;;;;;0.20;0.20;;;;;;;;;;5127952;27;20552;-68
2021/04/26 03:26:11;;;;;;;0.20;0.20;;;;;;;;;;5143987;27;20236;-68
2021/04/26 03:28:41;;;;;;;0.20;0.20;;;;;;;;;;5130109;27;20204;-70
2021/04/26 03:31:07;;;;;;;0.20;0.20;;;;;;;;;;5133352;27;20201;-68
2021/04/26 03:33:35;;;;;;;0.20;0.20;;;;;;;;;;5131881;27;20561;-70
2021/04/26 03:36:01;;;;;;;0.20;0.20;;;;;;;;;;5130901;27;20204;-70
2021/04/26 03:38:27;;;;;;;0.23;0.23;;;;;;;;;;5133188;27;20207;-68
2021/04/26 03:40:54;;;;;;;0.20;0.20;;;;;;;;;;5128703;27;20205;-69
2021/04/26 03:43:20;;;;;;;0.20;0.20;;;;;;;;;;5134846;27;20239;-69
2021/04/26 03:45:47;;;;;;;0.20;0.20;;;;;;;;;;5127122;27;20210;-70
2021/04/26 03:48:12;;;;;;;0.20;0.20;;;;;;;;;;5136786;27;20201;-70
2021/04/26 03:50:39;;;;;;;0.20;0.20;;;;;;;;;;5124878;27;20204;-69
2021/04/26 03:53:05;;;;;;;0.23;0.23;;;;;;;;;;5138556;27;20244;-69
2021/04/26 03:55:31;;;;;;;0.30;0.30;;;;;;;;;;5124602;28;20268;-69
2021/04/26 03:57:56;;;;;;;0.20;0.20;;;;;;;;;;5143831;27;20248;-68
2021/04/26 04:00:23;;;;;;;0.20;0.20;;;;;;;;;;5133845;27;20583;-68
2021/04/26 04:02:49;;;;;;;0.20;0.20;;;;;;;;;;5138908;27;20493;-68
2021/04/26 04:05:15;;;;;;;0.20;0.20;;;;;;;;;;5124148;28;20247;-69
2021/04/26 04:07:42;;;;;;;0.20;0.20;;;;;;;;;;5138764;27;20415;-68
2021/04/26 04:10:09;;;;;;;0.20;0.20;;;;;;;;;;5131796;27;20250;-71
2021/04/26 04:12:35;;;;;;;0.20;0.20;;;;;;;;;;5140752;27;20539;-71
2021/04/26 04:15:01;;;;;;;0.20;0.20;;;;;;;;;;5144914;27;20219;-70
2021/04/26 04:17:27;;;;;;;0.20;0.20;;;;;;;;;;5137751;27;20246;-69
2021/04/26 04:19:53;;;;;;;0.20;0.20;;;;;;;;;;5138627;27;20201;-69
2021/04/26 04:22:19;;;;;;;0.30;0.30;;;;;;;;;;5138660;27;20218;-70
2021/04/26 04:24:46;;;;;;;0.20;0.20;;;;;;;;;;5124331;28;20247;-70
2021/04/26 04:27:11;;;;;;;0.20;0.20;;;;;;;;;;5138590;27;20202;-69
2021/04/26 04:29:37;;;;;;;0.30;0.30;;;;;;;;;;5124765;28;20206;-70
2021/04/26 04:32:03;;;;;;;0.20;0.20;;;;;;;;;;5140114;27;20504;-70
2021/04/26 04:34:29;;;;;;;0.20;0.20;;;;;;;;;;5144966;27;20479;-69
2021/04/26 04:36:55;;;;;;;0.27;0.27;;;;;;;;;;5112760;28;20210;-69
2021/04/26 04:39:21;;;;;;;0.20;0.20;;;;;;;;;;5123992;28;20198;-69
2021/04/26 04:41:47;;;;;;;0.20;0.20;;;;;;;;;;5123906;28;20243;-70
2021/04/26 04:44:13;;;;;;;0.20;0.20;;;;;;;;;;5123942;27;20197;-69
2021/04/26 04:46:39;;;;;;;0.20;0.20;;;;;;;;;;5124136;28;20512;-69
2021/04/26 04:49:04;;;;;;;0.23;0.23;;;;;;;;;;5140367;27;20197;-69
2021/04/26 04:51:30;;;;;;;0.20;0.20;;;;;;;;;;5144287;28;20280;-68
2021/04/26 04:53:56;;;;;;;0.20;0.20;;;;;;;;;;5130828;28;20237;-69
2021/04/26 04:56:22;;;;;;;0.20;0.20;;;;;;;;;;5138135;28;20497;-68
2021/04/26 04:58:48;;;;;;;0.20;0.20;;;;;;;;;;5135862;28;20272;-70
2021/04/26 05:01:14;;;;;;;0.20;0.20;;;;;;;;;;5126698;28;20201;-69
2021/04/26 05:03:40;;;;;;;0.20;0.20;;;;;;;;;;5134036;28;20200;-70
2021/04/26 05:06:05;;;;;;;0.30;0.30;;;;;;;;;;5127927;27;20202;-70
2021/04/26 05:08:31;;;;;;;0.30;0.30;;;;;;;;;;5132130;28;20221;-69
2021/04/26 05:10:57;;;;;;;0.20;0.20;;;;;;;;;;5131353;27;20209;-70
2021/04/26 05:13:23;;;;;;;0.20;0.20;;;;;;;;;;5142282;28;20225;-70
2021/04/26 05:15:49;;;;;;;0.30;0.30;;;;;;;;;;5123556;28;20239;-69
2021/04/26 05:18:15;;;;;;;0.27;0.27;;;;;;;;;;5123885;28;20303;-68
2021/04/26 05:20:41;;;;;;;0.20;0.20;;;;;;;;;;5123589;28;20497;-69
2021/04/26 05:23:08;;;;;;;0.20;0.20;;;;;;;;;;5136023;28;20497;-69
2021/04/26 05:25:34;;;;;;;0.20;0.20;;;;;;;;;;5125192;28;20289;-70
2021/04/26 05:28:00;;;;;;;0.20;0.20;;;;;;;;;;5123470;28;20224;-69
2021/04/26 05:30:26;;;;;;;0.20;0.20;;;;;;;;;;5138217;27;20201;-70
2021/04/26 05:32:52;;;;;;;0.30;0.30;;;;;;;;;;5123750;28;20229;-69
2021/04/26 05:35:18;;;;;;;0.20;0.20;;;;;;;;;;5125873;28;20277;-70
2021/04/26 05:37:44;;;;;;;0.20;0.20;;;;;;;;;;5133431;27;20201;-70
2021/04/26 05:40:10;;;;;;;0.20;0.20;;;;;;;;;;5135589;27;20202;-69
2021/04/26 05:42:36;;;;;;;0.20;0.20;;;;;;;;;;5131291;27;20197;-70
2021/04/26 05:45:01;;;;;;;0.20;0.20;;;;;;;;;;5137347;27;20420;-69
2021/04/26 05:47:27;;;;;;;0.20;0.20;;;;;;;;;;5141340;27;20236;-69
2021/04/26 05:49:54;;;;;;;0.20;0.20;;;;;;;;;;5127334;28;20205;-69
2021/04/26 05:52:19;;;;;;;0.20;0.20;;;;;;;;;;5141604;27;20209;-69
2021/04/26 05:54:45;;;;;;;0.20;0.20;;;;;;;;;;5153462;27;20253;-70
2021/04/26 05:57:11;;;;;;;0.20;0.20;;;;;;;;;;5142520;27;20307;-70
2021/04/26 05:59:37;;;;;;;0.20;0.20;;;;;;;;;;5141074;27;20194;-69
2021/04/26 06:02:02;;;;;;;0.20;0.20;;;;;;;;;;5143084;27;20326;-70
2021/04/26 06:04:28;;;;;;;0.20;0.20;;;;;;;;;;5150253;27;20194;-70
2021/04/26 06:06:55;;;;;;;0.20;0.20;;;;;;;;;;5139613;27;20298;-70
2021/04/26 06:09:21;;;;;;;0.20;0.20;;;;;;;;;;5136661;27;20367;-70
2021/04/26 06:11:47;;;;;;;0.20;0.20;;;;;;;;;;5144503;27;20261;-68
2021/04/26 06:14:13;;;;;;;0.20;0.20;;;;;;;;;;5135012;27;20267;-68
2021/04/26 06:16:38;;;;;;;0.20;0.20;;;;;;;;;;5141753;27;20198;-70
2021/04/26 06:19:04;;;;;;;0.20;0.20;;;;;;;;;;5135039;27;20201;-69
2021/04/26 06:21:30;;;;;;;0.20;0.20;;;;;;;;;;5141264;27;20206;-69
2021/04/26 06:23:57;;;;;;;0.20;0.20;;;;;;;;;;5138937;27;20218;-70
2021/04/26 06:26:22;;;;;;;0.20;0.20;;;;;;;;;;5139454;27;20526;-70
2021/04/26 06:28:48;;;;;;;0.20;0.20;;;;;;;;;;5143428;27;20202;-71
2021/04/26 06:31:14;;;;;;;0.20;0.20;;;;;;;;;;5132492;27;20292;-70
2021/04/26 06:33:40;;;;;;;0.20;0.20;;;;;;;;;;5134919;27;20265;-70
2021/04/26 06:36:06;;;;;;;0.20;0.20;;;;;;;;;;5131814;27;20253;-71
2021/04/26 06:38:32;;;;;;;0.20;0.20;;;;;;;;;;5138974;27;20321;-71
2021/04/26 06:40:59;;;;;;;0.20;0.20;;;;;;;;;;5141389;27;20201;-69
2021/04/26 06:43:24;;;;;;;0.20;0.20;;;;;;;;;;5134265;27;20553;-70
2021/04/26 06:45:50;;;;;;;0.20;0.20;;;;;;;;;;5140430;27;20203;-70
2021/04/26 06:48:17;;;;;;;0.20;0.20;;;;;;;;;;5139403;27;20240;-70
2021/04/26 06:50:42;;;;;;;0.10;0.10;;;;;;;;;;5138771;27;20208;-71
2021/04/26 06:53:08;;;;;;;0.10;0.10;;;;;;;;;;5143660;27;20243;-65
2021/04/26 06:55:34;;;;;;;0.20;0.20;;;;;;;;;;5140271;27;20202;-67
2021/04/26 06:58:01;;;;;;;0.10;0.10;;;;;;;;;;5134203;27;20278;-69
2021/04/26 07:00:27;;;;;;;0.10;0.10;;;;;;;;;;5146328;27;20201;-67
2021/04/26 07:02:53;;;;;;;0.10;0.10;;;;;;;;;;5132034;27;20490;-67
2021/04/26 07:05:19;;;;;;;0.10;0.10;;;;;;;;;;5142848;27;20274;-66
2021/04/26 07:07:45;;;;;;;0.10;0.10;;;;;;;;;;5135753;27;20435;-67
2021/04/26 07:10:12;;;;;;;0.00;0.00;;;;;;;;;;5144976;27;20501;-67
2021/04/26 07:12:37;;;;;;;0.10;0.10;;;;;;;;;;5144806;27;20202;-66
2021/04/26 07:15:05;;;;;;;0.10;0.10;;;;;;;;;;5146389;27;20207;-69
2021/04/26 07:17:31;;;;;;;0.10;0.10;;;;;;;;;;5146273;27;20205;-68
2021/04/26 07:19:57;;;;;;;0.10;0.10;;;;;;;;;;5145928;27;20540;-67
2021/04/26 07:22:23;;;;;;;0.10;0.10;;;;;;;;;;5158032;27;20292;-69
2021/04/26 07:24:49;;;;;;;0.10;0.10;;;;;;;;;;5137287;27;20512;-68
2021/04/26 07:27:15;;;;;;;0.03;0.03;;;;;;;;;;5149946;27;20207;-69
2021/04/26 07:29:41;;;;;;;0.10;0.10;;;;;;;;;;5148230;27;20199;-68
2021/04/26 07:32:07;;;;;;;0.08;0.08;;;;;;;;;;5147560;27;20354;-68
2021/04/26 07:34:33;;;;;;;0.05;0.05;;;;;;;;;;5142806;27;20226;-68
2021/04/26 07:36:59;;;;;;;0.10;0.10;;;;;;;;;;5139471;27;20382;-68
2021/04/26 07:39:25;;;;;;;0.10;0.10;;;;;;;;;;5131137;27;20527;-67
2021/04/26 07:41:51;;;;;;;0.10;0.10;;;;;;;;;;5158162;27;20203;-67
2021/04/26 07:44:17;;;;;;;0.10;0.10;;;;;;;;;;5147636;27;20227;-68
2021/04/26 07:46:43;;;;;;;0.03;0.03;;;;;;;;;;5145535;27;20212;-67
2021/04/26 07:49:10;;;;;;;0.10;0.10;;;;;;;;;;5160024;27;20198;-68
2021/04/26 07:51:35;;;;;;;0.10;0.10;;;;;;;;;;5151403;27;20206;-68
2021/04/26 07:54:01;;;;;;;0.10;0.10;;;;;;;;;;5137707;27;20463;-67
2021/04/26 07:56:27;;;;;;;0.10;0.10;;;;;;;;;;5154033;27;20212;-67
2021/04/26 07:58:53;;;;;;;0.10;0.10;;;;;;;;;;5140109;27;20270;-67
2021/04/26 08:01:19;;;;;;;0.10;0.10;;;;;;;;;;5138073;27;20446;-67
2021/04/26 08:03:44;;;;;;;0.10;0.10;;;;;;;;;;5137937;27;20420;-69
2021/04/26 08:06:12;;;;;;;0.10;0.10;;;;;;;;;;5135419;27;20498;-69
2021/04/26 08:08:38;;;;;;;0.10;0.10;;;;;;;;;;5134713;27;20249;-71
2021/04/26 08:11:04;;;;;;;0.10;0.10;;;;;;;;;;5145565;27;20225;-70
2021/04/26 08:13:31;;;;;;;0.10;0.10;;;;;;;;;;5131102;27;20231;-70
2021/04/26 08:15:57;;;;;;;0.10;0.10;;;;;;;;;;5153738;27;20228;-70
2021/04/26 08:18:23;;;;;;;0.10;0.10;;;;;;;;;;5144100;27;20205;-70
2021/04/26 08:20:49;;;;;;;0.10;0.10;;;;;;;;;;5139243;27;20211;-70
2021/04/26 08:23:16;;;;;;;0.10;0.10;;;;;;;;;;5137100;27;20567;-70
2021/04/26 08:25:43;;;;;;;0.17;0.17;;;;;;;;;;5136912;27;20203;-68
2021/04/26 08:28:10;;;;;;;0.10;0.10;;;;;;;;;;5137520;27;20206;-68
2021/04/26 08:30:36;;;;;;;0.10;0.10;;;;;;;;;;5134455;27;20223;-69
2021/04/26 08:33:03;;;;;;;0.10;0.10;;;;;;;;;;5144453;27;20218;-68
2021/04/26 08:35:29;;;;;;;0.10;0.10;;;;;;;;;;5142109;27;20262;-71
2021/04/26 08:37:55;;;;;;;0.10;0.10;;;;;;;;;;5133730;27;20202;-68
2021/04/26 08:40:22;;;;;;;0.10;0.10;;;;;;;;;;5136028;27;20208;-69
2021/04/26 08:42:48;;;;;;;0.10;0.10;;;;;;;;;;5143705;27;20204;-68
2021/04/26 08:45:14;;;;;;;0.10;0.10;;;;;;;;;;5144968;27;20231;-69
2021/04/26 08:47:41;;;;;;;0.10;0.10;;;;;;;;;;5141971;27;20227;-67
2021/04/26 08:50:08;;;;;;;0.10;0.10;;;;;;;;;;5144347;28;20244;-68
2021/04/26 08:52:34;;;;;;;0.10;0.10;;;;;;;;;;5143107;28;20394;-68
2021/04/26 08:55:00;;;;;;;0.10;0.10;;;;;;;;;;5134117;28;20207;-68
2021/04/26 08:57:27;;;;;;;0.10;0.10;;;;;;;;;;5128582;27;20433;-68
2021/04/26 08:59:53;;;;;;;0.10;0.10;;;;;;;;;;5132584;28;20228;-67
2021/04/26 09:02:19;;;;;;;0.10;0.10;;;;;;;;;;5144365;28;20494;-68
2021/04/26 09:04:47;;;;;;;0.10;0.10;;;;;;;;;;5144559;27;20201;-68
2021/04/26 09:07:13;;;;;;;0.10;0.10;;;;;;;;;;5142143;28;20475;-67
2021/04/26 09:09:40;;;;;;;0.10;0.10;;;;;;;;;;5134957;27;20272;-68
2021/04/26 09:12:08;;;;;;;0.10;0.10;;;;;;;;;;5133298;27;20233;-70
2021/04/26 09:14:35;;;;;;;0.10;0.10;;;;;;;;;;5148027;27;20227;-69
2021/04/26 09:17:24;;;;;;;0.10;0.10;;;;;;;;;;5146934;27;20398;-67
2021/04/26 09:19:50;;;;;;;0.10;0.10;;;;;;;;;;5147232;27;20211;-68
2021/04/26 09:22:16;;;;;;;0.10;0.10;;;;;;;;;;5147744;27;20224;-68
2021/04/26 09:24:41;;;;;;;0.10;0.10;;;;;;;;;;5146936;27;20271;-69
2021/04/26 09:27:09;;;;;;;0.10;0.10;;;;;;;;;;5144251;27;20272;-66
2021/04/26 09:29:37;;;;;;;0.10;0.10;;;;;;;;;;5146708;27;20507;-67
2021/04/26 09:32:10;;;;;;;0.10;0.10;;;;;;;;;;5135309;27;20213;-68
2021/04/26 09:34:38;;;;;;;0.10;0.10;;;;;;;;;;5139440;27;20241;-68
2021/04/26 09:37:05;;;;;;;0.10;0.10;;;;;;;;;;5137488;27;20204;-69
2021/04/26 09:39:31;;;;;;;0.10;0.10;;;;;;;;;;5136859;27;20197;-68
2021/04/26 09:41:57;;;;;;;0.30;0.30;;;;;;;;;;5137204;27;20229;-67
2021/04/26 09:44:23;;;;;;;0.10;0.10;;;;;;;;;;5143808;27;20201;-68
2021/04/26 09:46:51;;;;;;;0.10;0.10;;;;;;;;;;5137099;27;20493;-68
2021/04/26 09:49:18;;;;;;;0.10;0.10;;;;;;;;;;5140745;27;20269;-73
2021/04/26 09:51:45;;;;;;;0.10;0.10;;;;;;;;;;5137763;27;20197;-72
2021/04/26 09:54:11;;;;;;;0.10;0.10;;;;;;;;;;5139046;27;20217;-75
2021/04/26 09:56:40;;;;;;;0.10;0.10;;;;;;;;;;5147277;27;20211;-72
2021/04/26 09:59:06;;;;;;;0.10;0.10;;;;;;;;;;5142067;27;20198;-72
2021/04/26 10:01:32;;;;;;;0.10;0.10;;;;;;;;;;5147106;27;20228;-71
2021/04/26 10:03:59;;;;;;;0.10;0.10;;;;;;;;;;5146119;27;20396;-73
2021/04/26 10:06:25;;;;;;;0.10;0.10;;;;;;;;;;5141417;27;20221;-73
2021/04/26 10:08:52;;;;;;;0.10;0.10;;;;;;;;;;5139234;27;20208;-72
2021/04/26 10:11:19;;;;;;;0.10;0.10;;;;;;;;;;5135408;27;20321;-72
2021/04/26 10:13:46;;;;;;;0.10;0.10;;;;;;;;;;5134152;27;20532;-71
2021/04/26 10:16:13;;;;;;;0.10;0.10;;;;;;;;;;5147206;27;20203;-70
2021/04/26 10:18:40;;;;;;;0.10;0.10;;;;;;;;;;5147364;27;20200;-73
2021/04/26 10:21:30;;;;;;;0.10;0.10;;;;;;;;;;5143088;27;20204;-71
2021/04/26 10:23:55;;;;;;;0.10;0.10;;;;;;;;;;5141680;27;20428;-71
2021/04/26 10:26:41;;;;;;;0.10;0.10;;;;;;;;;;5138949;27;20220;-70
2021/04/26 10:29:07;;;;;;;0.10;0.10;;;;;;;;;;5142228;27;20285;-70
2021/04/26 10:31:58;;;;;;;0.10;0.10;;;;;;;;;;5137986;27;20211;-72
2021/04/26 10:34:26;;;;;;;0.10;0.10;;;;;;;;;;5151459;27;20216;-70
2021/04/26 10:36:54;;;;;;;0.10;0.10;;;;;;;;;;5155652;27;20213;-70
2021/04/26 10:39:21;;;;;;;0.10;0.10;;;;;;;;;;5137521;27;20293;-69
2021/04/26 10:41:56;;;;;;;0.10;0.10;;;;;;;;;;5138914;27;20225;-71
2021/04/26 10:44:36;;;;;;;0.10;0.10;;;;;;;;;;5146131;27;20201;-69
2021/04/26 10:47:15;;;;;;;0.10;0.10;;;;;;;;;;5156090;27;20202;-69
2021/04/26 10:49:42;;;;;;;0.10;0.10;;;;;;;;;;5158548;27;20231;-70
2021/04/26 10:52:22;;;;;;;0.10;0.10;;;;;;;;;;5142043;27;20276;-69
2021/04/26 10:54:49;;;;;;;0.10;0.10;;;;;;;;;;5138964;27;20224;-69
2021/04/26 10:57:31;;;;;;;0.10;0.10;;;;;;;;;;5138834;27;20213;-69
2021/04/26 10:59:56;;;;;;;0.10;0.10;;;;;;;;;;5129420;27;20230;-71
2021/04/26 11:02:30;;;;;;;0.10;0.10;;;;;;;;;;5128462;27;20204;-70
2021/04/26 11:05:14;;;;;;;0.10;0.10;;;;;;;;;;5138007;27;20203;-69
2021/04/26 11:07:41;;;;;;;0.10;0.10;;;;;;;;;;5145962;27;20260;-69
2021/04/26 11:10:22;;;;;;;0.10;0.10;;;;;;;;;;5144289;27;20516;-70
2021/04/26 11:12:49;;;;;;;0.10;0.10;;;;;;;;;;5136105;27;20203;-71
2021/04/26 11:15:15;;;;;;;0.10;0.10;;;;;;;;;;5145861;27;20203;-70
2021/04/26 11:17:41;;;;;;;0.10;0.10;;;;;;;;;;5151539;27;20194;-71
2021/04/26 11:20:09;;;;;;;0.10;0.10;;;;;;;;;;5145938;27;20245;-71
2021/04/26 11:22:35;;;;;;;0.10;0.10;;;;;;;;;;5153323;27;20228;-70
2021/04/26 11:25:04;;;;;;;0.10;0.10;;;;;;;;;;5140328;27;20207;-71
2021/04/26 11:27:32;;;;;;;0.10;0.10;;;;;;;;;;5145857;27;20253;-70
2021/04/26 11:30:12;;;;;;;0.10;0.10;;;;;;;;;;5125528;28;20283;-70
2021/04/26 11:32:54;;;;;;;0.10;0.10;;;;;;;;;;5142950;27;20210;-70
2021/04/26 11:35:20;;;;;;;0.10;0.10;;;;;;;;;;5145834;27;20362;-71
2021/04/26 11:37:46;;;;;;;0.10;0.10;;;;;;;;;;5143138;27;20197;-71
2021/04/26 11:40:16;;;;;;;0.10;0.10;;;;;;;;;;5145767;27;20231;-71
2021/04/26 11:42:42;;;;;;;0.10;0.10;;;;;;;;;;5145443;27;20299;-70
2021/04/26 11:45:08;;;;;;;0.10;0.10;;;;;;;;;;5138013;27;20274;-69
2021/04/26 11:47:35;;;;;;;0.10;0.10;;;;;;;;;;5146995;27;20210;-71
2021/04/26 11:50:01;;;;;;;0.10;0.10;;;;;;;;;;5133999;27;20247;-69
2021/04/26 11:52:28;;;;;;;0.10;0.10;;;;;;;;;;5139742;27;20200;-69
2021/04/26 11:55:06;;;;;;;0.10;0.10;;;;;;;;;;5145231;27;20223;-70
2021/04/26 11:57:38;;;;;;;0.10;0.10;;;;;;;;;;5138321;27;20534;-69
2021/04/26 12:00:06;;;;;;;0.10;0.10;;;;;;;;;;5144045;27;20263;-70
2021/04/26 12:02:32;;;;;;;0.10;0.10;;;;;;;;;;5129902;27;20221;-69
2021/04/26 12:05:00;;;;;;;0.10;0.10;;;;;;;;;;5138275;27;20227;-70
2021/04/26 12:07:26;;;;;;;0.10;0.10;;;;;;;;;;5139584;27;20210;-70
2021/04/26 12:09:53;;;;;;;0.10;0.10;;;;;;;;;;5144624;27;20253;-69
2021/04/26 12:12:21;;;;;;;0.10;0.10;;;;;;;;;;5144968;27;20202;-72
2021/04/26 12:14:52;;;;;;;0.10;0.10;;;;;;;;;;5145204;27;20252;-69
2021/04/26 12:17:19;;;;;;;0.10;0.10;;;;;;;;;;5144932;27;20208;-69
2021/04/26 12:19:45;;;;;;;0.10;0.10;;;;;;;;;;5135520;27;20204;-70
2021/04/26 12:22:13;;;;;;;0.10;0.10;;;;;;;;;;5144389;27;20252;-69
2021/04/26 12:24:40;;;;;;;0.10;0.10;;;;;;;;;;5141854;27;20213;-69
2021/04/26 12:27:10;;;;;;;0.10;0.10;;;;;;;;;;5133915;27;20207;-70
2021/04/26 12:29:36;;;;;;;0.10;0.10;;;;;;;;;;5132606;27;20211;-71
2021/04/26 12:32:09;;;;;;;0.10;0.10;;;;;;;;;;5134544;27;20229;-69
2021/04/26 12:34:46;;;;;;;0.10;0.10;;;;;;;;;;5144988;27;20223;-69
2021/04/26 12:37:13;;;;;;;0.10;0.10;;;;;;;;;;5144569;27;20216;-69
2021/04/26 12:39:39;;;;;;;0.10;0.10;;;;;;;;;;5145278;27;20209;-69
2021/04/26 12:42:08;;;;;;;0.10;0.10;;;;;;;;;;5130788;27;20380;-69
2021/04/26 12:44:34;;;;;;;0.10;0.10;;;;;;;;;;5131267;27;20204;-69
2021/04/26 12:47:14;;;;;;;0.10;0.10;;;;;;;;;;5142419;27;20436;-69
2021/04/26 12:49:40;;;;;;;0.10;0.10;;;;;;;;;;5125589;28;20374;-68
2021/04/26 12:52:16;;;;;;;0.10;0.10;;;;;;;;;;5130845;28;20272;-71
2021/04/26 12:55:06;;;;;;;0.10;0.10;;;;;;;;;;5139606;28;20244;-73
2021/04/26 12:57:32;;;;;;;0.10;0.10;;;;;;;;;;5114701;28;20217;-70
2021/04/26 12:59:58;;;;;;;0.10;0.10;;;;;;;;;;5115677;28;20200;-69
2021/04/26 13:02:28;;;;;;;0.10;0.10;;;;;;;;;;5133387;28;20386;-70
2021/04/26 13:04:55;;;;;;;0.10;0.10;;;;;;;;;;5145793;27;20205;-68
2021/04/26 13:07:22;;;;;;;0.10;0.10;;;;;;;;;;5143662;28;20207;-68
2021/04/26 13:09:59;;;;;;;0.10;0.10;;;;;;;;;;5136401;27;20201;-69
2021/04/26 13:12:26;;;;;;;0.10;0.10;;;;;;;;;;5136085;28;20379;-70
2021/04/26 13:14:52;;;;;;;0.10;0.10;;;;;;;;;;5132223;28;20236;-71
2021/04/26 13:17:18;;;;;;;0.10;0.10;;;;;;;;;;5144359;27;20202;-69
2021/04/26 13:19:45;;;;;;;0.50;0.50;;;;;;;;;;5138411;28;20204;-69
2021/04/26 13:22:23;;;;;;;0.10;0.10;;;;;;;;;;5141610;28;20224;-70
2021/04/26 13:24:55;;;;;;;0.10;0.10;;;;;;;;;;5144140;28;20446;-69
2021/04/26 13:27:21;;;;;;;0.10;0.10;;;;;;;;;;5132779;27;20203;-69
2021/04/26 13:29:46;;;;;;;0.10;0.10;;;;;;;;;;5131268;28;20200;-70
2021/04/26 13:32:12;;;;;;;0.10;0.10;;;;;;;;;;5136658;28;20204;-68
2021/04/26 13:34:39;;;;;;;0.10;0.10;;;;;;;;;;5144331;28;20263;-69
2021/04/26 13:37:05;;;;;;;0.10;0.10;;;;;;;;;;5139772;28;20598;-70
2021/04/26 13:39:32;;;;;;;0.10;0.10;;;;;;;;;;5134230;28;20200;-71
2021/04/26 13:41:57;;;;;;;0.10;0.10;;;;;;;;;;5140737;28;20203;-71
2021/04/26 13:44:24;;;;;;;0.10;0.10;;;;;;;;;;5141395;28;20208;-71
2021/04/26 13:46:50;;;;;;;0.10;0.10;;;;;;;;;;5144339;28;20200;-71
2021/04/26 13:49:16;;;;;;;0.10;0.10;;;;;;;;;;5141668;27;20224;-70
2021/04/26 13:51:42;;;;;;;0.10;0.10;;;;;;;;;;5140355;28;20220;-69
2021/04/26 13:54:08;;;;;;;0.10;0.10;;;;;;;;;;5134021;28;20244;-71
2021/04/26 13:56:35;;;;;;;0.10;0.10;;;;;;;;;;5146528;27;20202;-68
2021/04/26 13:59:01;;;;;;;0.10;0.10;;;;;;;;;;5147791;27;20381;-69
2021/04/26 14:01:27;;;;;;;0.10;0.10;;;;;;;;;;5147130;27;20264;-69
2021/04/26 14:03:53;;;;;;;0.10;0.10;;;;;;;;;;5140683;27;20204;-67
2021/04/26 14:06:19;;;;;;;0.10;0.10;;;;;;;;;;5147014;27;20388;-68
2021/04/26 14:08:45;;;;;;;0.10;0.10;;;;;;;;;;5147505;27;20399;-66
2021/04/26 14:11:11;;;;;;;0.10;0.10;;;;;;;;;;5141738;27;20231;-67
2021/04/26 14:13:38;;;;;;;0.10;0.10;;;;;;;;;;5139847;27;20240;-67
2021/04/26 14:16:05;;;;;;;0.10;0.10;;;;;;;;;;5143530;27;20295;-66
2021/04/26 14:18:31;;;;;;;0.10;0.10;;;;;;;;;;5141475;27;20460;-66
2021/04/26 14:20:57;;;;;;;0.10;0.10;;;;;;;;;;5129418;27;20214;-65
2021/04/26 14:23:23;;;;;;;0.10;0.10;;;;;;;;;;5140559;27;20236;-66
2021/04/26 14:25:49;;;;;;;0.10;0.10;;;;;;;;;;5131503;27;20206;-68
2021/04/26 14:28:15;;;;;;;0.10;0.10;;;;;;;;;;5130410;27;20209;-68
2021/04/26 14:30:43;;;;;;;0.10;0.10;;;;;;;;;;5138201;27;20208;-67
2021/04/26 14:33:09;;;;;;;0.10;0.10;;;;;;;;;;5133870;27;20369;-68
2021/04/26 14:38:38;;;;;;;0.10;0.10;;;;;;;;;;5132456;27;20249;-70
2021/04/26 14:41:04;;;;;;;0.10;0.10;;;;;;;;;;5138533;27;20496;-71
2021/04/26 14:43:29;;;;;;;0.10;0.10;;;;;;;;;;5142804;27;20205;-70
2021/04/26 14:45:56;;;;;;;0.10;0.10;;;;;;;;;;5144750;27;20232;-70